createdAt,value
2023-01-22T00:00:23.053Z,98095.81
2023-01-22T00:02:51.646Z,98107.91
2023-01-22T00:05:19.777Z,98086.88
2023-01-22T00:07:47.977Z,98083.22
2023-01-22T00:10:16.988Z,98095.66
2023-01-22T00:12:46.764Z,98092.31
2023-01-22T00:15:15.356Z,98096.50
2023-01-22T00:17:43.429Z,98097.09
2023-01-22T00:20:13.664Z,98098.38
2023-01-22T00:22:42.339Z,98091.47
2023-01-22T00:25:12.809Z,98089.31
2023-01-22T00:27:41.894Z,98087.56
2023-01-22T00:30:13.548Z,98094.88
2023-01-22T00:32:41.691Z,98090.78
2023-01-22T00:35:10.706Z,98083.50
2023-01-22T00:37:38.995Z,98093.72
2023-01-22T00:40:08.492Z,98093.97
2023-01-22T00:42:37.294Z,98098.16
2023-01-22T00:45:06.094Z,98107.31
2023-01-22T00:47:36.327Z,98105.34
2023-01-22T00:50:05.210Z,98101.03
2023-01-22T00:52:33.446Z,98108.00
2023-01-22T00:55:01.563Z,98112.53
2023-01-22T00:57:30.419Z,98101.03
2023-01-22T00:59:58.605Z,98106.34
2023-01-22T01:02:26.856Z,98107.41
2023-01-22T01:04:57.523Z,98096.19
2023-01-22T01:07:25.769Z,98109.97
2023-01-22T01:09:53.939Z,98098.16
2023-01-22T01:12:22.755Z,98109.53
2023-01-22T01:14:51.024Z,98110.31
2023-01-22T01:17:19.306Z,98104.50
2023-01-22T01:19:48.206Z,98107.09
2023-01-22T01:22:18.135Z,98101.84
2023-01-22T01:24:46.569Z,98095.72
2023-01-22T01:27:15.501Z,98105.66
2023-01-22T01:29:43.955Z,98111.94
2023-01-22T01:32:12.226Z,98106.38
2023-01-22T01:34:40.926Z,98099.72
2023-01-22T01:37:09.185Z,98110.88
2023-01-22T01:39:38.725Z,98115.16
2023-01-22T01:42:07.639Z,98098.91
2023-01-22T01:44:35.804Z,98101.59
2023-01-22T01:47:07.399Z,98094.66
2023-01-22T01:49:44.904Z,98117.88
2023-01-22T01:52:14.611Z,98107.13
2023-01-22T01:54:47.010Z,98117.38
2023-01-22T01:57:20.005Z,98121.97
2023-01-22T01:59:51.440Z,98119.00
2023-01-22T02:02:20.781Z,98102.28
2023-01-22T02:04:49.909Z,98121.31
2023-01-22T02:07:19.243Z,98102.50
2023-01-22T02:09:49.018Z,98125.44
2023-01-22T02:12:20.572Z,98131.50
2023-01-22T02:14:51.324Z,98137.56
2023-01-22T02:17:22.642Z,98129.66
2023-01-22T02:19:50.746Z,98132.16
2023-01-22T02:22:22.970Z,98137.25
2023-01-22T02:24:51.681Z,98135.16
2023-01-22T02:27:20.273Z,98130.59
2023-01-22T02:29:48.836Z,98131.19
2023-01-22T02:32:17.142Z,98136.75
2023-01-22T02:34:45.212Z,98132.56
2023-01-22T02:37:14.117Z,98151.91
2023-01-22T02:39:43.574Z,98147.59
2023-01-22T02:42:12.250Z,98135.94
2023-01-22T02:44:41.111Z,98134.28
2023-01-22T02:47:09.331Z,98143.50
2023-01-22T02:49:37.443Z,98149.47
2023-01-22T02:52:06.451Z,98143.75
2023-01-22T02:54:34.709Z,98152.72
2023-01-22T02:57:04.164Z,98139.91
2023-01-22T02:59:32.884Z,98142.28
2023-01-22T03:02:01.175Z,98153.09
2023-01-22T03:04:29.345Z,98136.31
2023-01-22T03:06:57.936Z,98145.06
2023-01-22T03:09:25.973Z,98141.97
2023-01-22T03:11:54.135Z,98132.47
2023-01-22T03:14:42.251Z,98137.78
2023-01-22T03:17:28.072Z,98136.16
2023-01-22T03:20:14.154Z,98129.97
2023-01-22T03:22:42.220Z,98151.47
2023-01-22T03:25:10.627Z,98153.22
2023-01-22T03:27:59.698Z,98141.38
2023-01-22T03:30:29.383Z,98138.53
2023-01-22T03:32:57.553Z,98138.94
2023-01-22T03:35:26.354Z,98136.41
2023-01-22T03:51:21.134Z,98152.59
2023-01-22T03:53:50.114Z,98147.69
2023-01-22T03:56:20.263Z,98144.50
2023-01-22T03:58:50.244Z,98154.19
2023-01-22T04:01:21.683Z,98149.41
2023-01-22T04:03:53.000Z,98148.16
2023-01-22T04:06:24.520Z,98150.81
2023-01-22T04:08:56.953Z,98141.34
2023-01-22T04:11:25.587Z,98137.94
2023-01-22T04:13:57.863Z,98144.56
2023-01-22T04:18:54.913Z,98150.94
2023-01-22T04:24:07.895Z,98156.97
2023-01-22T04:40:11.753Z,98176.41
2023-01-22T04:42:44.309Z,98168.19
2023-01-22T04:48:01.548Z,98168.03
2023-01-22T05:05:56.932Z,98178.41
2023-01-22T05:08:30.372Z,98180.72
2023-01-22T05:11:03.818Z,98183.41
2023-01-22T05:13:31.813Z,98190.94
2023-01-22T05:16:00.224Z,98190.72
2023-01-22T05:18:29.296Z,98196.50
2023-01-22T05:28:25.280Z,98207.47
2023-01-22T05:30:54.836Z,98205.94
2023-01-22T05:33:25.130Z,98207.44
2023-01-22T05:36:04.502Z,98207.44
2023-01-22T05:43:41.722Z,98209.66
2023-01-22T05:46:12.027Z,98208.38
2023-01-22T05:58:36.485Z,98217.69
2023-01-22T06:01:07.288Z,98221.16
2023-01-22T06:03:35.827Z,98219.75
2023-01-22T06:06:06.534Z,98220.38
2023-01-22T06:08:36.074Z,98225.69
2023-01-22T06:11:06.469Z,98230.66
2023-01-22T06:13:35.893Z,98200.25
2023-01-22T06:16:05.864Z,98227.00
2023-01-22T06:18:34.499Z,98229.53
2023-01-22T06:21:04.316Z,98233.34
2023-01-22T06:23:34.833Z,98238.00
2023-01-22T06:26:05.270Z,98231.75
2023-01-22T06:28:33.890Z,98236.97
2023-01-22T06:31:06.030Z,98238.09
2023-01-22T06:33:38.263Z,98237.09
2023-01-22T06:36:07.149Z,98244.25
2023-01-22T06:38:35.127Z,98243.81
2023-01-22T06:41:03.293Z,98253.34
2023-01-22T06:43:31.616Z,98252.75
2023-01-22T06:45:59.687Z,98251.81
2023-01-22T06:48:27.713Z,98246.59
2023-01-22T06:51:01.137Z,98267.78
2023-01-22T06:53:29.502Z,98246.31
2023-01-22T06:56:00.269Z,98265.84
2023-01-22T06:58:28.869Z,98263.28
2023-01-22T07:01:01.368Z,98274.34
2023-01-22T07:03:30.448Z,98280.03
2023-01-22T07:06:02.013Z,98280.69
2023-01-22T07:08:31.244Z,98272.50
2023-01-22T07:11:00.053Z,98284.25
2023-01-22T07:13:28.405Z,98270.75
2023-01-22T07:15:57.109Z,98273.44
2023-01-22T07:18:25.398Z,98281.66
2023-01-22T07:20:54.136Z,98289.81
2023-01-22T07:23:24.551Z,98290.31
2023-01-22T07:25:53.456Z,98277.41
2023-01-22T07:28:21.777Z,98289.47
2023-01-22T07:30:50.346Z,98293.66
2023-01-22T07:33:18.588Z,98291.00
2023-01-22T07:35:54.662Z,98293.78
2023-01-22T07:38:24.714Z,98296.56
2023-01-22T07:40:53.646Z,98290.53
2023-01-22T07:43:22.305Z,98297.78
2023-01-22T07:45:50.545Z,98292.72
2023-01-22T07:48:18.567Z,98297.22
2023-01-22T07:50:47.174Z,98300.31
2023-01-22T07:53:15.084Z,98299.84
2023-01-22T07:55:44.539Z,98309.50
2023-01-22T07:58:13.699Z,98314.63
2023-01-22T08:00:42.145Z,98317.88
2023-01-22T08:03:11.212Z,98320.78
2023-01-22T08:05:40.903Z,98323.94
2023-01-22T08:08:13.230Z,98328.94
2023-01-22T08:10:41.649Z,98339.50
2023-01-22T08:13:11.273Z,98339.63
2023-01-22T08:15:39.547Z,98345.44
2023-01-22T08:18:08.411Z,98354.53
2023-01-22T08:20:36.557Z,98338.72
2023-01-22T08:23:04.736Z,98355.56
2023-01-22T08:25:33.377Z,98363.34
2023-01-22T08:28:05.113Z,98362.19
2023-01-22T08:30:45.472Z,98369.88
2023-01-22T18:00:38.772Z,98595.66
2023-01-22T18:03:06.743Z,98592.38
2023-01-22T18:05:35.490Z,98595.69
2023-01-22T18:08:03.964Z,98601.88
2023-01-22T18:10:34.138Z,98604.41
2023-01-22T18:13:01.991Z,98599.56
2023-01-22T18:15:30.239Z,98612.16
2023-01-22T18:17:59.569Z,98612.75
2023-01-22T18:20:27.683Z,98611.00
2023-01-22T18:22:55.999Z,98618.44
2023-01-22T18:25:23.919Z,98610.13
2023-01-22T18:27:52.204Z,98618.25
2023-01-22T18:30:20.817Z,98614.91
2023-01-22T18:32:48.795Z,98616.69
2023-01-22T18:35:18.447Z,98623.72
2023-01-22T18:37:47.219Z,98621.34
2023-01-22T18:40:15.440Z,98622.84
2023-01-22T18:42:43.260Z,98622.91
2023-01-22T18:45:12.589Z,98632.66
2023-01-22T18:47:40.530Z,98621.78
2023-01-22T18:50:11.891Z,98643.47
2023-01-22T18:52:41.667Z,98621.00
2023-01-22T18:55:10.664Z,98632.06
2023-01-22T18:57:42.565Z,98643.56
2023-01-22T19:00:13.373Z,98644.91
2023-01-22T19:02:41.878Z,98633.31
2023-01-22T19:05:10.407Z,98652.53
2023-01-22T19:07:39.005Z,98641.72
2023-01-22T19:10:09.319Z,98647.38
2023-01-22T19:12:37.780Z,98649.28
2023-01-22T19:15:06.547Z,98649.13
2023-01-22T19:17:35.041Z,98654.03
2023-01-22T19:20:07.925Z,98654.66
2023-01-22T19:22:36.334Z,98652.25
2023-01-22T19:25:06.813Z,98642.53
2023-01-22T19:27:36.527Z,98650.41
2023-01-22T19:30:04.832Z,98645.50
2023-01-22T19:32:35.143Z,98652.63
2023-01-22T19:35:04.514Z,98651.78
2023-01-22T19:37:32.705Z,98660.19
2023-01-22T19:40:01.331Z,98668.97
2023-01-22T19:42:30.004Z,98668.16
2023-01-22T19:44:59.489Z,98669.13
2023-01-22T19:47:28.868Z,98658.88
2023-01-22T19:49:56.981Z,98671.44
2023-01-22T19:52:25.010Z,98667.47
2023-01-22T19:54:53.611Z,98669.34
2023-01-22T19:57:21.687Z,98672.38
2023-01-22T19:59:52.954Z,98673.63
2023-01-22T20:02:24.045Z,98672.66
2023-01-22T20:04:52.534Z,98671.84
2023-01-22T20:07:21.562Z,98674.69
2023-01-22T20:09:50.922Z,98677.19
2023-01-22T20:12:19.388Z,98678.97
2023-01-22T20:14:47.350Z,98681.59
2023-01-22T20:17:17.203Z,98689.09
2023-01-22T20:19:46.424Z,98682.75
2023-01-22T20:22:14.942Z,98685.66
2023-01-22T20:24:44.826Z,98691.88
2023-01-22T20:27:16.091Z,98686.66
2023-01-22T20:29:44.089Z,98691.22
2023-01-22T20:32:12.494Z,98692.84
2023-01-22T20:34:42.890Z,98693.38
2023-01-22T20:37:12.276Z,98703.50
2023-01-22T20:39:42.945Z,98694.47
2023-01-22T20:42:11.156Z,98697.09
2023-01-22T20:44:40.877Z,98697.88
2023-01-22T20:47:09.518Z,98696.09
2023-01-22T20:49:37.801Z,98697.88
2023-01-22T20:52:06.081Z,98704.03
2023-01-22T20:54:42.867Z,98702.78
2023-01-22T20:57:20.724Z,98700.81
2023-01-22T20:59:51.303Z,98709.47
2023-01-22T21:02:19.604Z,98710.72
2023-01-22T21:04:47.831Z,98708.38
2023-01-22T21:07:16.126Z,98707.50
2023-01-22T21:09:45.489Z,98712.69
2023-01-22T21:12:13.964Z,98707.50
2023-01-22T21:14:42.401Z,98712.53
2023-01-22T21:17:12.178Z,98722.69
2023-01-22T21:19:40.078Z,98724.66
2023-01-22T21:22:08.489Z,98725.34
2023-01-22T21:24:36.566Z,98723.66
2023-01-22T21:27:06.482Z,98727.13
2023-01-22T21:29:34.880Z,98738.44
2023-01-22T21:32:03.130Z,98735.69
2023-01-22T21:34:32.429Z,98730.97
2023-01-22T21:37:00.797Z,98725.75
2023-01-22T21:39:30.704Z,98721.75
2023-01-22T21:42:13.449Z,98729.44
2023-01-22T21:45:00.474Z,98737.94
2023-01-22T21:47:29.267Z,98731.50
2023-01-22T21:49:57.498Z,98739.84
2023-01-22T21:52:26.683Z,98744.91
2023-01-22T21:54:54.669Z,98739.34
2023-01-22T21:57:22.985Z,98745.94
2023-01-22T21:59:52.884Z,98750.59
2023-01-22T22:02:22.402Z,98760.44
2023-01-22T22:04:50.413Z,98750.59
2023-01-22T22:07:19.741Z,98756.38
2023-01-22T22:09:47.919Z,98753.56
2023-01-22T22:12:15.693Z,98754.63
2023-01-22T22:14:43.927Z,98759.22
2023-01-22T22:17:15.611Z,98757.94
2023-01-22T22:19:43.872Z,98753.47
2023-01-22T22:22:11.777Z,98770.75
2023-01-22T22:24:40.034Z,98770.81
2023-01-22T22:27:08.626Z,98778.63
2023-01-22T22:29:36.729Z,98765.78
2023-01-22T22:32:05.404Z,98768.44
2023-01-22T22:34:36.933Z,98774.28
2023-01-22T22:37:04.815Z,98768.47
2023-01-22T22:39:32.768Z,98776.88
2023-01-22T22:42:01.115Z,98777.25
2023-01-22T22:44:28.961Z,98773.50
2023-01-22T22:46:57.290Z,98770.00
2023-01-22T22:49:25.156Z,98763.97
2023-01-22T22:51:56.616Z,98770.22
2023-01-22T22:54:24.509Z,98768.31
2023-01-22T22:56:52.900Z,98775.72
2023-01-22T22:59:21.364Z,98773.97
2023-01-22T23:01:50.074Z,98778.63
2023-01-22T23:04:23.017Z,98781.63
2023-01-22T23:06:51.958Z,98784.81
2023-01-22T23:09:23.304Z,98785.09
2023-01-22T23:11:52.018Z,98775.09
2023-01-22T23:14:19.942Z,98786.16
2023-01-22T23:16:48.609Z,98788.81
2023-01-22T23:19:18.931Z,98786.16
2023-01-22T23:21:50.074Z,98789.22
2023-01-22T23:24:18.317Z,98782.94
2023-01-22T23:26:47.883Z,98790.78
2023-01-22T23:29:17.995Z,98793.50
2023-01-22T23:31:46.032Z,98798.25
2023-01-22T23:34:16.113Z,98796.66
2023-01-22T23:36:46.474Z,98795.00
2023-01-22T23:39:16.656Z,98795.00
2023-01-22T23:41:44.829Z,98801.19
2023-01-22T23:44:14.869Z,98806.00
2023-01-22T23:46:42.899Z,98807.22
2023-01-22T23:49:11.118Z,98801.03
2023-01-22T23:51:41.513Z,98799.25
2023-01-22T23:54:09.955Z,98806.00
2023-01-22T23:56:38.254Z,98809.53
2023-01-22T23:59:06.968Z,98807.81
